sensor_id;sensor_type;location;lat;lon;timestamp;P1;durP1;ratioP1;P2;durP2;ratioP2
40717;SDS011;26405;51.850;-2.246;2022-11-11T00:02:19;8.07;;;1.80;;
40717;SDS011;26405;51.850;-2.246;2022-11-11T00:04:44;10.32;;;2.47;;
40717;SDS011;26405;51.850;-2.246;2022-11-11T00:07:10;6.35;;;2.13;;
40717;SDS011;26405;51.850;-2.246;2022-11-11T00:09:35;4.80;;;1.80;;
40717;SDS011;26405;51.850;-2.246;2022-11-11T00:12:00;6.60;;;2.13;;
40717;SDS011;26405;51.850;-2.246;2022-11-11T00:14:26;5.05;;;1.85;;
40717;SDS011;26405;51.850;-2.246;2022-11-11T00:16:51;6.55;;;2.20;;
40717;SDS011;26405;51.850;-2.246;2022-11-11T00:19:35;5.30;;;2.10;;
40717;SDS011;26405;51.850;-2.246;2022-11-11T00:22:19;9.77;;;2.20;;
40717;SDS011;26405;51.850;-2.246;2022-11-11T00:25:04;6.95;;;2.42;;
40717;SDS011;26405;51.850;-2.246;2022-11-11T00:27:33;8.48;;;2.10;;
40717;SDS011;26405;51.850;-2.246;2022-11-11T00:29:59;7.32;;;2.05;;
40717;SDS011;26405;51.850;-2.246;2022-11-11T00:32:24;8.05;;;2.33;;
40717;SDS011;26405;51.850;-2.246;2022-11-11T00:34:55;7.25;;;2.35;;
40717;SDS011;26405;51.850;-2.246;2022-11-11T00:37:40;6.25;;;2.05;;
40717;SDS011;26405;51.850;-2.246;2022-11-11T00:40:06;7.70;;;2.33;;
40717;SDS011;26405;51.850;-2.246;2022-11-11T00:42:32;5.68;;;2.10;;
40717;SDS011;26405;51.850;-2.246;2022-11-11T00:44:57;7.10;;;1.80;;
40717;SDS011;26405;51.850;-2.246;2022-11-11T00:47:22;9.40;;;2.33;;
40717;SDS011;26405;51.850;-2.246;2022-11-11T00:50:09;9.82;;;2.10;;
40717;SDS011;26405;51.850;-2.246;2022-11-11T00:52:53;7.75;;;2.13;;
40717;SDS011;26405;51.850;-2.246;2022-11-11T00:55:18;7.25;;;2.17;;
40717;SDS011;26405;51.850;-2.246;2022-11-11T00:57:43;10.68;;;2.08;;
40717;SDS011;26405;51.850;-2.246;2022-11-11T01:00:09;9.82;;;2.30;;
40717;SDS011;26405;51.850;-2.246;2022-11-11T01:02:34;7.43;;;2.20;;
40717;SDS011;26405;51.850;-2.246;2022-11-11T01:04:59;6.85;;;1.90;;
40717;SDS011;26405;51.850;-2.246;2022-11-11T01:07:25;3.70;;;1.87;;
40717;SDS011;26405;51.850;-2.246;2022-11-11T01:09:50;13.27;;;2.60;;
40717;SDS011;26405;51.850;-2.246;2022-11-11T01:12:15;6.97;;;2.00;;
40717;SDS011;26405;51.850;-2.246;2022-11-11T01:14:41;6.93;;;2.20;;
40717;SDS011;26405;51.850;-2.246;2022-11-11T01:17:06;6.03;;;2.13;;
40717;SDS011;26405;51.850;-2.246;2022-11-11T01:19:33;6.28;;;2.20;;
40717;SDS011;26405;51.850;-2.246;2022-11-11T01:21:59;8.48;;;2.20;;
40717;SDS011;26405;51.850;-2.246;2022-11-11T01:24:24;7.38;;;2.10;;
40717;SDS011;26405;51.850;-2.246;2022-11-11T01:26:49;13.02;;;2.38;;
40717;SDS011;26405;51.850;-2.246;2022-11-11T01:29:15;5.75;;;1.95;;
40717;SDS011;26405;51.850;-2.246;2022-11-11T01:31:40;6.15;;;1.80;;
40717;SDS011;26405;51.850;-2.246;2022-11-11T01:34:05;4.15;;;1.77;;
40717;SDS011;26405;51.850;-2.246;2022-11-11T01:36:31;6.68;;;2.30;;
40717;SDS011;26405;51.850;-2.246;2022-11-11T01:38:57;5.38;;;1.92;;
40717;SDS011;26405;51.850;-2.246;2022-11-11T01:41:23;10.17;;;2.30;;
40717;SDS011;26405;51.850;-2.246;2022-11-11T01:43:58;7.10;;;2.30;;
40717;SDS011;26405;51.850;-2.246;2022-11-11T01:49:13;9.52;;;2.03;;
40717;SDS011;26405;51.850;-2.246;2022-11-11T01:51:47;11.15;;;2.47;;
40717;SDS011;26405;51.850;-2.246;2022-11-11T01:54:16;11.52;;;2.30;;
40717;SDS011;26405;51.850;-2.246;2022-11-11T01:56:43;8.63;;;2.10;;
40717;SDS011;26405;51.850;-2.246;2022-11-11T01:59:11;8.13;;;2.58;;
40717;SDS011;26405;51.850;-2.246;2022-11-11T02:01:36;7.50;;;2.10;;
40717;SDS011;26405;51.850;-2.246;2022-11-11T02:04:03;5.32;;;1.75;;
40717;SDS011;26405;51.850;-2.246;2022-11-11T02:06:50;10.93;;;2.55;;
40717;SDS011;26405;51.850;-2.246;2022-11-11T02:11:41;6.37;;;2.20;;
40717;SDS011;26405;51.850;-2.246;2022-11-11T02:14:25;6.60;;;2.33;;
40717;SDS011;26405;51.850;-2.246;2022-11-11T02:17:00;8.93;;;2.70;;
40717;SDS011;26405;51.850;-2.246;2022-11-11T02:19:38;8.13;;;2.20;;
40717;SDS011;26405;51.850;-2.246;2022-11-11T02:22:05;11.68;;;2.30;;
40717;SDS011;26405;51.850;-2.246;2022-11-11T02:24:32;8.15;;;2.28;;
40717;SDS011;26405;51.850;-2.246;2022-11-11T02:26:57;6.88;;;2.22;;
40717;SDS011;26405;51.850;-2.246;2022-11-11T02:29:24;6.93;;;2.40;;
40717;SDS011;26405;51.850;-2.246;2022-11-11T02:31:50;7.17;;;2.00;;
40717;SDS011;26405;51.850;-2.246;2022-11-11T02:34:15;11.03;;;2.50;;
40717;SDS011;26405;51.850;-2.246;2022-11-11T02:36:40;7.88;;;2.13;;
40717;SDS011;26405;51.850;-2.246;2022-11-11T02:39:06;6.65;;;1.90;;
40717;SDS011;26405;51.850;-2.246;2022-11-11T02:41:32;4.80;;;2.00;;
40717;SDS011;26405;51.850;-2.246;2022-11-11T02:44:15;8.38;;;2.28;;
40717;SDS011;26405;51.850;-2.246;2022-11-11T02:46:41;5.82;;;1.88;;
40717;SDS011;26405;51.850;-2.246;2022-11-11T02:49:06;7.05;;;2.15;;
40717;SDS011;26405;51.850;-2.246;2022-11-11T02:51:31;7.18;;;2.00;;
40717;SDS011;26405;51.850;-2.246;2022-11-11T02:53:56;4.45;;;1.73;;
40717;SDS011;26405;51.850;-2.246;2022-11-11T02:56:26;8.55;;;2.10;;
40717;SDS011;26405;51.850;-2.246;2022-11-11T02:59:09;6.82;;;2.25;;
40717;SDS011;26405;51.850;-2.246;2022-11-11T03:01:35;7.03;;;2.10;;
40717;SDS011;26405;51.850;-2.246;2022-11-11T03:04:00;7.22;;;2.30;;
40717;SDS011;26405;51.850;-2.246;2022-11-11T03:06:25;8.05;;;2.47;;
40717;SDS011;26405;51.850;-2.246;2022-11-11T03:08:50;8.15;;;1.92;;
40717;SDS011;26405;51.850;-2.246;2022-11-11T03:11:16;8.43;;;2.38;;
40717;SDS011;26405;51.850;-2.246;2022-11-11T03:13:52;9.57;;;2.63;;
40717;SDS011;26405;51.850;-2.246;2022-11-11T03:16:17;8.00;;;2.33;;
40717;SDS011;26405;51.850;-2.246;2022-11-11T03:19:11;7.32;;;2.13;;
40717;SDS011;26405;51.850;-2.246;2022-11-11T03:21:36;8.10;;;2.72;;
40717;SDS011;26405;51.850;-2.246;2022-11-11T03:24:01;10.77;;;2.38;;
40717;SDS011;26405;51.850;-2.246;2022-11-11T03:26:27;7.95;;;2.30;;
40717;SDS011;26405;51.850;-2.246;2022-11-11T03:28:52;9.40;;;2.28;;
40717;SDS011;26405;51.850;-2.246;2022-11-11T03:31:18;6.93;;;2.47;;
40717;SDS011;26405;51.850;-2.246;2022-11-11T03:33:43;7.97;;;2.33;;
40717;SDS011;26405;51.850;-2.246;2022-11-11T03:36:08;9.27;;;2.50;;
40717;SDS011;26405;51.850;-2.246;2022-11-11T03:38:33;10.57;;;2.63;;
40717;SDS011;26405;51.850;-2.246;2022-11-11T03:40:59;8.25;;;2.40;;
40717;SDS011;26405;51.850;-2.246;2022-11-11T03:43:25;9.38;;;2.70;;
40717;SDS011;26405;51.850;-2.246;2022-11-11T03:45:52;10.23;;;2.40;;
40717;SDS011;26405;51.850;-2.246;2022-11-11T03:48:17;9.43;;;2.43;;
40717;SDS011;26405;51.850;-2.246;2022-11-11T03:50:43;11.98;;;2.75;;
40717;SDS011;26405;51.850;-2.246;2022-11-11T03:53:08;10.35;;;2.53;;
40717;SDS011;26405;51.850;-2.246;2022-11-11T03:55:33;10.23;;;2.50;;
40717;SDS011;26405;51.850;-2.246;2022-11-11T03:57:59;10.82;;;2.47;;
40717;SDS011;26405;51.850;-2.246;2022-11-11T04:00:25;11.83;;;2.70;;
40717;SDS011;26405;51.850;-2.246;2022-11-11T04:02:50;12.13;;;2.75;;
40717;SDS011;26405;51.850;-2.246;2022-11-11T04:05:34;8.68;;;2.67;;
40717;SDS011;26405;51.850;-2.246;2022-11-11T04:08:18;11.68;;;2.60;;
40717;SDS011;26405;51.850;-2.246;2022-11-11T04:11:07;8.98;;;2.50;;
40717;SDS011;26405;51.850;-2.246;2022-11-11T04:13:33;9.30;;;2.50;;
40717;SDS011;26405;51.850;-2.246;2022-11-11T04:16:17;8.57;;;2.22;;
40717;SDS011;26405;51.850;-2.246;2022-11-11T04:18:43;9.52;;;2.45;;
40717;SDS011;26405;51.850;-2.246;2022-11-11T04:21:26;8.80;;;2.42;;
40717;SDS011;26405;51.850;-2.246;2022-11-11T04:24:07;7.28;;;2.40;;
40717;SDS011;26405;51.850;-2.246;2022-11-11T04:26:55;6.88;;;1.90;;
40717;SDS011;26405;51.850;-2.246;2022-11-11T04:29:20;6.70;;;2.13;;
40717;SDS011;26405;51.850;-2.246;2022-11-11T04:31:52;7.25;;;2.38;;
40717;SDS011;26405;51.850;-2.246;2022-11-11T04:34:36;5.95;;;2.00;;
40717;SDS011;26405;51.850;-2.246;2022-11-11T04:37:01;7.03;;;2.08;;
40717;SDS011;26405;51.850;-2.246;2022-11-11T04:39:27;5.25;;;1.80;;
40717;SDS011;26405;51.850;-2.246;2022-11-11T04:42:10;6.55;;;2.00;;
40717;SDS011;26405;51.850;-2.246;2022-11-11T04:44:36;4.68;;;1.80;;
40717;SDS011;26405;51.850;-2.246;2022-11-11T04:47:19;6.18;;;1.90;;
40717;SDS011;26405;51.850;-2.246;2022-11-11T04:49:45;8.57;;;2.33;;
40717;SDS011;26405;51.850;-2.246;2022-11-11T04:52:10;8.35;;;2.58;;
40717;SDS011;26405;51.850;-2.246;2022-11-11T04:54:50;5.68;;;1.80;;
40717;SDS011;26405;51.850;-2.246;2022-11-11T04:57:37;7.03;;;2.10;;
40717;SDS011;26405;51.850;-2.246;2022-11-11T05:00:02;5.38;;;2.10;;
40717;SDS011;26405;51.850;-2.246;2022-11-11T05:02:28;7.18;;;2.13;;
40717;SDS011;26405;51.850;-2.246;2022-11-11T05:05:12;5.93;;;2.10;;
40717;SDS011;26405;51.850;-2.246;2022-11-11T05:07:37;8.98;;;2.35;;
40717;SDS011;26405;51.850;-2.246;2022-11-11T05:10:21;10.75;;;2.45;;
40717;SDS011;26405;51.850;-2.246;2022-11-11T05:12:46;10.48;;;2.53;;
40717;SDS011;26405;51.850;-2.246;2022-11-11T05:15:11;6.53;;;2.33;;
40717;SDS011;26405;51.850;-2.246;2022-11-11T05:17:55;10.13;;;2.67;;
40717;SDS011;26405;51.850;-2.246;2022-11-11T05:20:39;5.95;;;2.20;;
40717;SDS011;26405;51.850;-2.246;2022-11-11T05:23:23;10.40;;;2.40;;
40717;SDS011;26405;51.850;-2.246;2022-11-11T05:26:08;12.55;;;2.60;;
40717;SDS011;26405;51.850;-2.246;2022-11-11T05:28:34;7.55;;;2.33;;
40717;SDS011;26405;51.850;-2.246;2022-11-11T05:30:59;6.68;;;2.38;;
40717;SDS011;26405;51.850;-2.246;2022-11-11T05:33:24;13.65;;;2.78;;
40717;SDS011;26405;51.850;-2.246;2022-11-11T05:35:49;7.00;;;2.70;;
40717;SDS011;26405;51.850;-2.246;2022-11-11T05:38:15;8.75;;;2.25;;
40717;SDS011;26405;51.850;-2.246;2022-11-11T05:40:46;8.68;;;2.25;;
40717;SDS011;26405;51.850;-2.246;2022-11-11T05:43:12;8.27;;;2.22;;
40717;SDS011;26405;51.850;-2.246;2022-11-11T05:45:39;9.25;;;2.50;;
40717;SDS011;26405;51.850;-2.246;2022-11-11T05:48:05;9.45;;;2.67;;
40717;SDS011;26405;51.850;-2.246;2022-11-11T05:50:30;8.32;;;2.55;;
40717;SDS011;26405;51.850;-2.246;2022-11-11T05:52:55;8.10;;;2.33;;
40717;SDS011;26405;51.850;-2.246;2022-11-11T05:55:21;5.53;;;1.80;;
40717;SDS011;26405;51.850;-2.246;2022-11-11T05:57:46;6.40;;;2.28;;
40717;SDS011;26405;51.850;-2.246;2022-11-11T06:00:11;5.43;;;2.00;;
40717;SDS011;26405;51.850;-2.246;2022-11-11T06:02:37;8.32;;;2.30;;
40717;SDS011;26405;51.850;-2.246;2022-11-11T06:05:03;6.05;;;2.13;;
40717;SDS011;26405;51.850;-2.246;2022-11-11T06:07:28;7.95;;;2.40;;
40717;SDS011;26405;51.850;-2.246;2022-11-11T06:09:53;8.20;;;2.17;;
40717;SDS011;26405;51.850;-2.246;2022-11-11T06:12:42;9.85;;;2.05;;
40717;SDS011;26405;51.850;-2.246;2022-11-11T06:15:26;7.43;;;2.15;;
40717;SDS011;26405;51.850;-2.246;2022-11-11T06:17:51;5.40;;;1.95;;
40717;SDS011;26405;51.850;-2.246;2022-11-11T06:20:16;8.07;;;2.13;;
40717;SDS011;26405;51.850;-2.246;2022-11-11T06:22:41;11.27;;;2.40;;
40717;SDS011;26405;51.850;-2.246;2022-11-11T06:25:25;7.90;;;2.22;;
40717;SDS011;26405;51.850;-2.246;2022-11-11T06:28:10;11.98;;;2.38;;
40717;SDS011;26405;51.850;-2.246;2022-11-11T06:30:35;12.40;;;2.22;;
40717;SDS011;26405;51.850;-2.246;2022-11-11T06:33:01;7.63;;;2.10;;
40717;SDS011;26405;51.850;-2.246;2022-11-11T06:35:26;6.30;;;2.15;;
40717;SDS011;26405;51.850;-2.246;2022-11-11T06:37:51;8.95;;;2.65;;
40717;SDS011;26405;51.850;-2.246;2022-11-11T06:40:17;8.15;;;2.40;;
40717;SDS011;26405;51.850;-2.246;2022-11-11T06:42:42;8.90;;;2.20;;
40717;SDS011;26405;51.850;-2.246;2022-11-11T06:45:07;10.23;;;2.20;;
40717;SDS011;26405;51.850;-2.246;2022-11-11T06:47:33;7.47;;;2.22;;
40717;SDS011;26405;51.850;-2.246;2022-11-11T06:49:58;4.95;;;2.20;;
40717;SDS011;26405;51.850;-2.246;2022-11-11T06:52:23;10.27;;;2.35;;
40717;SDS011;26405;51.850;-2.246;2022-11-11T06:54:49;10.65;;;2.53;;
40717;SDS011;26405;51.850;-2.246;2022-11-11T06:57:14;9.77;;;2.40;;
40717;SDS011;26405;51.850;-2.246;2022-11-11T06:59:39;8.52;;;2.25;;
40717;SDS011;26405;51.850;-2.246;2022-11-11T07:02:05;10.07;;;2.50;;
40717;SDS011;26405;51.850;-2.246;2022-11-11T07:04:30;7.47;;;2.30;;
40717;SDS011;26405;51.850;-2.246;2022-11-11T07:06:55;5.07;;;1.90;;
40717;SDS011;26405;51.850;-2.246;2022-11-11T07:09:21;10.88;;;2.35;;
40717;SDS011;26405;51.850;-2.246;2022-11-11T07:11:47;7.75;;;2.17;;
40717;SDS011;26405;51.850;-2.246;2022-11-11T07:14:12;6.95;;;2.08;;
40717;SDS011;26405;51.850;-2.246;2022-11-11T07:16:38;14.77;;;3.38;;
40717;SDS011;26405;51.850;-2.246;2022-11-11T07:19:03;6.68;;;2.25;;
40717;SDS011;26405;51.850;-2.246;2022-11-11T07:21:28;10.65;;;2.08;;
40717;SDS011;26405;51.850;-2.246;2022-11-11T07:23:54;8.60;;;2.20;;
40717;SDS011;26405;51.850;-2.246;2022-11-11T07:26:19;8.43;;;2.13;;
40717;SDS011;26405;51.850;-2.246;2022-11-11T07:28:44;7.78;;;2.10;;
40717;SDS011;26405;51.850;-2.246;2022-11-11T07:31:09;11.00;;;2.38;;
40717;SDS011;26405;51.850;-2.246;2022-11-11T07:33:35;10.45;;;2.22;;
40717;SDS011;26405;51.850;-2.246;2022-11-11T07:36:00;10.50;;;2.20;;
40717;SDS011;26405;51.850;-2.246;2022-11-11T07:38:25;7.40;;;2.30;;
40717;SDS011;26405;51.850;-2.246;2022-11-11T07:40:51;6.97;;;2.05;;
40717;SDS011;26405;51.850;-2.246;2022-11-11T07:43:16;7.65;;;2.50;;
40717;SDS011;26405;51.850;-2.246;2022-11-11T07:45:41;7.75;;;2.50;;
40717;SDS011;26405;51.850;-2.246;2022-11-11T07:48:07;10.15;;;2.13;;
40717;SDS011;26405;51.850;-2.246;2022-11-11T07:50:32;6.57;;;2.20;;
40717;SDS011;26405;51.850;-2.246;2022-11-11T07:52:58;9.43;;;2.15;;
40717;SDS011;26405;51.850;-2.246;2022-11-11T07:55:23;7.93;;;2.40;;
40717;SDS011;26405;51.850;-2.246;2022-11-11T07:57:50;7.25;;;2.15;;
40717;SDS011;26405;51.850;-2.246;2022-11-11T08:00:16;8.07;;;2.08;;
40717;SDS011;26405;51.850;-2.246;2022-11-11T08:02:45;8.15;;;2.03;;
40717;SDS011;26405;51.850;-2.246;2022-11-11T08:05:10;9.27;;;2.13;;
40717;SDS011;26405;51.850;-2.246;2022-11-11T08:07:35;7.63;;;2.22;;
40717;SDS011;26405;51.850;-2.246;2022-11-11T08:10:02;7.57;;;2.20;;
40717;SDS011;26405;51.850;-2.246;2022-11-11T08:12:27;6.40;;;1.80;;
40717;SDS011;26405;51.850;-2.246;2022-11-11T08:15:11;5.68;;;2.00;;
40717;SDS011;26405;51.850;-2.246;2022-11-11T08:17:39;7.45;;;2.08;;
40717;SDS011;26405;51.850;-2.246;2022-11-11T08:20:05;8.05;;;2.25;;
40717;SDS011;26405;51.850;-2.246;2022-11-11T08:22:34;3.30;;;1.83;;
40717;SDS011;26405;51.850;-2.246;2022-11-11T08:24:59;4.28;;;1.98;;
40717;SDS011;26405;51.850;-2.246;2022-11-11T08:27:25;6.13;;;2.13;;
40717;SDS011;26405;51.850;-2.246;2022-11-11T08:29:50;6.38;;;1.92;;
40717;SDS011;26405;51.850;-2.246;2022-11-11T08:32:15;6.78;;;2.15;;
40717;SDS011;26405;51.850;-2.246;2022-11-11T08:34:40;6.22;;;1.95;;
40717;SDS011;26405;51.850;-2.246;2022-11-11T08:37:06;4.40;;;1.98;;
40717;SDS011;26405;51.850;-2.246;2022-11-11T08:39:31;5.45;;;1.90;;
40717;SDS011;26405;51.850;-2.246;2022-11-11T08:41:56;6.00;;;2.20;;
40717;SDS011;26405;51.850;-2.246;2022-11-11T08:44:21;3.72;;;1.90;;
40717;SDS011;26405;51.850;-2.246;2022-11-11T08:46:47;4.50;;;1.60;;
40717;SDS011;26405;51.850;-2.246;2022-11-11T08:49:12;5.63;;;1.90;;
40717;SDS011;26405;51.850;-2.246;2022-11-11T08:51:37;6.82;;;2.10;;
40717;SDS011;26405;51.850;-2.246;2022-11-11T08:54:03;9.82;;;2.05;;
40717;SDS011;26405;51.850;-2.246;2022-11-11T08:56:28;9.73;;;2.03;;
40717;SDS011;26405;51.850;-2.246;2022-11-11T08:58:53;7.68;;;1.85;;
40717;SDS011;26405;51.850;-2.246;2022-11-11T09:01:18;9.35;;;2.45;;
40717;SDS011;26405;51.850;-2.246;2022-11-11T09:03:44;8.75;;;2.05;;
40717;SDS011;26405;51.850;-2.246;2022-11-11T09:06:10;7.13;;;2.33;;
40717;SDS011;26405;51.850;-2.246;2022-11-11T09:08:36;4.18;;;1.50;;
40717;SDS011;26405;51.850;-2.246;2022-11-11T09:11:01;7.95;;;2.03;;
40717;SDS011;26405;51.850;-2.246;2022-11-11T09:13:26;5.13;;;1.80;;
40717;SDS011;26405;51.850;-2.246;2022-11-11T09:15:52;4.38;;;1.80;;
40717;SDS011;26405;51.850;-2.246;2022-11-11T09:18:17;7.40;;;2.38;;
40717;SDS011;26405;51.850;-2.246;2022-11-11T09:20:42;4.38;;;2.25;;
40717;SDS011;26405;51.850;-2.246;2022-11-11T09:23:08;7.15;;;1.98;;
40717;SDS011;26405;51.850;-2.246;2022-11-11T09:25:33;9.43;;;2.60;;
40717;SDS011;26405;51.850;-2.246;2022-11-11T09:27:59;7.18;;;2.42;;
40717;SDS011;26405;51.850;-2.246;2022-11-11T09:30:26;6.95;;;2.05;;
40717;SDS011;26405;51.850;-2.246;2022-11-11T09:32:51;8.68;;;2.10;;
40717;SDS011;26405;51.850;-2.246;2022-11-11T09:35:18;6.95;;;2.05;;
40717;SDS011;26405;51.850;-2.246;2022-11-11T09:37:53;8.63;;;2.50;;
40717;SDS011;26405;51.850;-2.246;2022-11-11T09:40:19;6.97;;;2.30;;
40717;SDS011;26405;51.850;-2.246;2022-11-11T09:45:25;6.70;;;2.15;;
40717;SDS011;26405;51.850;-2.246;2022-11-11T09:47:58;8.10;;;2.35;;
40717;SDS011;26405;51.850;-2.246;2022-11-11T09:50:27;9.00;;;2.25;;
40717;SDS011;26405;51.850;-2.246;2022-11-11T09:57:49;6.07;;;2.10;;
40717;SDS011;26405;51.850;-2.246;2022-11-11T10:00:17;9.00;;;2.17;;
40717;SDS011;26405;51.850;-2.246;2022-11-11T10:02:45;10.00;;;2.53;;
40717;SDS011;26405;51.850;-2.246;2022-11-11T10:05:16;9.90;;;2.50;;
40717;SDS011;26405;51.850;-2.246;2022-11-11T10:07:48;11.27;;;2.30;;
40717;SDS011;26405;51.850;-2.246;2022-11-11T10:10:36;11.18;;;2.55;;
40717;SDS011;26405;51.850;-2.246;2022-11-11T10:13:02;11.32;;;2.70;;
40717;SDS011;26405;51.850;-2.246;2022-11-11T10:15:34;6.15;;;2.20;;
40717;SDS011;26405;51.850;-2.246;2022-11-11T10:20:29;12.35;;;2.92;;
40717;SDS011;26405;51.850;-2.246;2022-11-11T10:23:02;7.65;;;2.25;;
40717;SDS011;26405;51.850;-2.246;2022-11-11T10:25:29;10.48;;;2.55;;
40717;SDS011;26405;51.850;-2.246;2022-11-11T10:27:56;12.02;;;2.70;;
40717;SDS011;26405;51.850;-2.246;2022-11-11T10:30:24;7.63;;;2.88;;
40717;SDS011;26405;51.850;-2.246;2022-11-11T10:32:56;7.75;;;2.35;;
40717;SDS011;26405;51.850;-2.246;2022-11-11T10:35:23;10.05;;;2.50;;
40717;SDS011;26405;51.850;-2.246;2022-11-11T10:37:51;11.13;;;2.25;;
40717;SDS011;26405;51.850;-2.246;2022-11-11T10:40:24;9.05;;;2.60;;
40717;SDS011;26405;51.850;-2.246;2022-11-11T10:42:51;11.15;;;2.83;;
40717;SDS011;26405;51.850;-2.246;2022-11-11T10:45:22;10.75;;;2.85;;
40717;SDS011;26405;51.850;-2.246;2022-11-11T10:47:55;16.13;;;2.83;;
40717;SDS011;26405;51.850;-2.246;2022-11-11T10:50:23;8.45;;;2.65;;
40717;SDS011;26405;51.850;-2.246;2022-11-11T10:52:57;12.40;;;3.00;;
40717;SDS011;26405;51.850;-2.246;2022-11-11T10:55:46;10.40;;;2.80;;
40717;SDS011;26405;51.850;-2.246;2022-11-11T10:58:15;14.23;;;2.83;;
40717;SDS011;26405;51.850;-2.246;2022-11-11T11:00:43;10.60;;;2.88;;
40717;SDS011;26405;51.850;-2.246;2022-11-11T11:03:21;10.35;;;2.42;;
40717;SDS011;26405;51.850;-2.246;2022-11-11T11:05:57;9.38;;;2.88;;
40717;SDS011;26405;51.850;-2.246;2022-11-11T11:08:28;10.65;;;2.85;;
40717;SDS011;26405;51.850;-2.246;2022-11-11T11:10:55;5.93;;;2.40;;
40717;SDS011;26405;51.850;-2.246;2022-11-11T11:16:07;10.02;;;2.80;;
40717;SDS011;26405;51.850;-2.246;2022-11-11T11:18:35;10.57;;;2.53;;
40717;SDS011;26405;51.850;-2.246;2022-11-11T11:21:04;11.97;;;2.43;;
40717;SDS011;26405;51.850;-2.246;2022-11-11T11:23:39;11.73;;;2.97;;
40717;SDS011;26405;51.850;-2.246;2022-11-11T11:26:05;10.05;;;2.70;;
40717;SDS011;26405;51.850;-2.246;2022-11-11T11:28:31;9.20;;;2.53;;
40717;SDS011;26405;51.850;-2.246;2022-11-11T11:30:57;9.63;;;2.40;;
40717;SDS011;26405;51.850;-2.246;2022-11-11T11:33:22;9.47;;;2.50;;
40717;SDS011;26405;51.850;-2.246;2022-11-11T11:35:47;10.68;;;2.65;;
40717;SDS011;26405;51.850;-2.246;2022-11-11T11:38:13;11.07;;;3.17;;
40717;SDS011;26405;51.850;-2.246;2022-11-11T11:45:57;11.25;;;2.70;;
40717;SDS011;26405;51.850;-2.246;2022-11-11T12:01:32;7.90;;;2.50;;
40717;SDS011;26405;51.850;-2.246;2022-11-11T12:04:13;12.70;;;3.17;;
40717;SDS011;26405;51.850;-2.246;2022-11-11T12:17:25;10.05;;;2.70;;
40717;SDS011;26405;51.850;-2.246;2022-11-11T12:19:38;9.35;;;2.95;;
40717;SDS011;26405;51.850;-2.246;2022-11-11T12:22:10;10.80;;;3.05;;
40717;SDS011;26405;51.850;-2.246;2022-11-11T12:30:03;10.63;;;2.50;;
40717;SDS011;26405;51.850;-2.246;2022-11-11T12:48:01;10.53;;;2.77;;
40717;SDS011;26405;51.850;-2.246;2022-11-11T12:58:29;14.27;;;3.00;;
40717;SDS011;26405;51.850;-2.246;2022-11-11T13:11:19;7.50;;;2.50;;
40717;SDS011;26405;51.850;-2.246;2022-11-11T13:16:14;8.48;;;2.67;;
40717;SDS011;26405;51.850;-2.246;2022-11-11T13:21:06;7.40;;;2.60;;
40717;SDS011;26405;51.850;-2.246;2022-11-11T13:23:32;13.82;;;3.08;;
40717;SDS011;26405;51.850;-2.246;2022-11-11T13:25:59;11.57;;;2.70;;
40717;SDS011;26405;51.850;-2.246;2022-11-11T13:28:33;9.90;;;2.72;;
40717;SDS011;26405;51.850;-2.246;2022-11-11T13:33:39;12.53;;;2.93;;
40717;SDS011;26405;51.850;-2.246;2022-11-11T13:36:06;10.57;;;2.75;;
40717;SDS011;26405;51.850;-2.246;2022-11-11T13:38:34;8.93;;;2.30;;
40717;SDS011;26405;51.850;-2.246;2022-11-11T13:41:01;6.50;;;2.47;;
40717;SDS011;26405;51.850;-2.246;2022-11-11T13:44:03;8.05;;;2.40;;
40717;SDS011;26405;51.850;-2.246;2022-11-11T13:48:51;7.68;;;2.65;;
40717;SDS011;26405;51.850;-2.246;2022-11-11T13:53:48;10.05;;;2.63;;
40717;SDS011;26405;51.850;-2.246;2022-11-11T13:56:27;9.83;;;2.73;;
40717;SDS011;26405;51.850;-2.246;2022-11-11T13:58:53;10.25;;;2.88;;
40717;SDS011;26405;51.850;-2.246;2022-11-11T14:01:19;8.90;;;2.60;;
40717;SDS011;26405;51.850;-2.246;2022-11-11T14:11:31;9.18;;;2.50;;
40717;SDS011;26405;51.850;-2.246;2022-11-11T14:13:56;9.38;;;2.50;;
40717;SDS011;26405;51.850;-2.246;2022-11-11T14:18:59;8.45;;;2.38;;
40717;SDS011;26405;51.850;-2.246;2022-11-11T14:24:36;8.77;;;2.40;;
40717;SDS011;26405;51.850;-2.246;2022-11-11T14:29:29;13.37;;;3.57;;
40717;SDS011;26405;51.850;-2.246;2022-11-11T14:34:50;8.20;;;2.22;;
40717;SDS011;26405;51.850;-2.246;2022-11-11T14:39:56;10.45;;;2.88;;
40717;SDS011;26405;51.850;-2.246;2022-11-11T14:45:02;11.43;;;2.60;;
40717;SDS011;26405;51.850;-2.246;2022-11-11T14:47:32;6.93;;;2.38;;
40717;SDS011;26405;51.850;-2.246;2022-11-11T14:49:57;10.95;;;2.55;;
40717;SDS011;26405;51.850;-2.246;2022-11-11T14:52:42;10.97;;;3.03;;
40717;SDS011;26405;51.850;-2.246;2022-11-11T14:55:21;8.68;;;2.72;;
40717;SDS011;26405;51.850;-2.246;2022-11-11T14:57:59;10.18;;;2.70;;
40717;SDS011;26405;51.850;-2.246;2022-11-11T15:00:32;10.40;;;2.72;;
40717;SDS011;26405;51.850;-2.246;2022-11-11T15:05:30;12.43;;;3.13;;
40717;SDS011;26405;51.850;-2.246;2022-11-11T15:10:34;6.33;;;2.83;;
40717;SDS011;26405;51.850;-2.246;2022-11-11T15:15:59;14.60;;;3.65;;
40717;SDS011;26405;51.850;-2.246;2022-11-11T15:18:28;10.18;;;2.78;;
40717;SDS011;26405;51.850;-2.246;2022-11-11T15:26:14;12.45;;;3.30;;
40717;SDS011;26405;51.850;-2.246;2022-11-11T15:28:45;8.70;;;2.70;;
40717;SDS011;26405;51.850;-2.246;2022-11-11T15:38:32;13.15;;;3.15;;
40717;SDS011;26405;51.850;-2.246;2022-11-11T15:40:58;12.17;;;3.13;;
40717;SDS011;26405;51.850;-2.246;2022-11-11T15:43:25;9.30;;;2.45;;
40717;SDS011;26405;51.850;-2.246;2022-11-11T15:48:18;11.67;;;3.70;;
40717;SDS011;26405;51.850;-2.246;2022-11-11T15:50:45;10.57;;;2.78;;
40717;SDS011;26405;51.850;-2.246;2022-11-11T15:53:11;9.87;;;2.70;;
40717;SDS011;26405;51.850;-2.246;2022-11-11T15:55:37;11.30;;;2.90;;
40717;SDS011;26405;51.850;-2.246;2022-11-11T16:00:47;10.07;;;2.92;;
40717;SDS011;26405;51.850;-2.246;2022-11-11T16:03:16;7.60;;;2.70;;
40717;SDS011;26405;51.850;-2.246;2022-11-11T16:05:42;8.70;;;2.70;;
40717;SDS011;26405;51.850;-2.246;2022-11-11T16:08:08;14.10;;;3.95;;
40717;SDS011;26405;51.850;-2.246;2022-11-11T16:10:35;9.98;;;3.50;;
40717;SDS011;26405;51.850;-2.246;2022-11-11T16:13:06;6.75;;;2.47;;
40717;SDS011;26405;51.850;-2.246;2022-11-11T16:18:14;12.27;;;3.42;;
40717;SDS011;26405;51.850;-2.246;2022-11-11T16:20:42;11.45;;;2.92;;
40717;SDS011;26405;51.850;-2.246;2022-11-11T16:23:11;13.38;;;3.78;;
40717;SDS011;26405;51.850;-2.246;2022-11-11T16:25:37;10.43;;;3.17;;
40717;SDS011;26405;51.850;-2.246;2022-11-11T16:28:03;8.73;;;3.30;;
40717;SDS011;26405;51.850;-2.246;2022-11-11T16:32:54;11.60;;;3.88;;
40717;SDS011;26405;51.850;-2.246;2022-11-11T16:35:22;16.15;;;5.35;;
40717;SDS011;26405;51.850;-2.246;2022-11-11T16:37:51;15.43;;;5.93;;
40717;SDS011;26405;51.850;-2.246;2022-11-11T16:46:07;14.07;;;5.03;;
40717;SDS011;26405;51.850;-2.246;2022-11-11T16:51:05;8.90;;;3.15;;
40717;SDS011;26405;51.850;-2.246;2022-11-11T16:53:32;10.98;;;3.50;;
40717;SDS011;26405;51.850;-2.246;2022-11-11T16:56:02;9.35;;;3.15;;
40717;SDS011;26405;51.850;-2.246;2022-11-11T16:58:28;12.95;;;3.72;;
40717;SDS011;26405;51.850;-2.246;2022-11-11T17:00:57;9.88;;;3.10;;
40717;SDS011;26405;51.850;-2.246;2022-11-11T17:03:24;8.15;;;2.65;;
40717;SDS011;26405;51.850;-2.246;2022-11-11T17:06:00;9.48;;;2.88;;
40717;SDS011;26405;51.850;-2.246;2022-11-11T17:08:30;12.65;;;3.40;;
40717;SDS011;26405;51.850;-2.246;2022-11-11T17:10:56;16.10;;;3.85;;
40717;SDS011;26405;51.850;-2.246;2022-11-11T17:13:22;14.38;;;4.00;;
40717;SDS011;26405;51.850;-2.246;2022-11-11T17:15:47;11.73;;;3.72;;
40717;SDS011;26405;51.850;-2.246;2022-11-11T17:18:12;11.00;;;3.15;;
40717;SDS011;26405;51.850;-2.246;2022-11-11T17:20:38;11.75;;;3.55;;
40717;SDS011;26405;51.850;-2.246;2022-11-11T17:23:04;6.28;;;2.80;;